createdAt,value
2019-03-30T15:02:39.407Z,41.10
2019-03-30T15:05:11.431Z,41.00
2019-03-30T15:07:41.373Z,40.20
2019-03-30T15:10:13.319Z,39.90
2019-03-30T15:12:44.584Z,39.60
2019-03-30T15:15:15.982Z,40.00
2019-03-30T15:17:46.956Z,40.10
2019-03-30T15:20:17.686Z,39.20
2019-03-30T15:22:48.349Z,39.10
2019-03-30T15:25:20.478Z,40.00
2019-03-30T15:27:51.125Z,39.10
2019-03-30T15:30:21.723Z,39.00
2019-03-30T15:32:51.954Z,39.40
2019-03-30T15:35:22.750Z,39.90
2019-03-30T15:37:53.380Z,39.60
2019-03-30T15:40:25.218Z,40.00
2019-03-30T15:42:56.134Z,39.00
2019-03-30T15:45:26.654Z,39.10
2019-03-30T15:47:57.655Z,38.90
2019-03-30T15:50:27.558Z,38.30
2019-03-30T15:52:58.542Z,39.40
2019-03-30T15:55:29.903Z,39.60
2019-03-30T15:58:00.418Z,39.20
2019-03-30T16:00:31.358Z,39.80
2019-03-30T16:03:02.343Z,40.20
2019-03-30T16:05:33.324Z,39.90
2019-03-30T16:08:04.598Z,39.40
2019-03-30T16:10:35.127Z,39.40
2019-03-30T16:13:06.085Z,40.00
2019-03-30T16:15:37.508Z,40.30
2019-03-30T16:18:08.469Z,40.20
2019-03-30T16:20:38.661Z,40.60
2019-03-30T16:23:08.571Z,41.10
2019-03-30T16:25:39.524Z,41.30
2019-03-30T16:28:10.577Z,42.60
2019-03-30T16:30:41.225Z,42.70
2019-03-30T16:33:12.536Z,43.60
2019-03-30T16:35:42.805Z,44.40
2019-03-30T16:38:14.090Z,45.50
2019-03-30T16:40:45.049Z,46.50
2019-03-30T16:43:15.698Z,46.60
2019-03-30T16:45:46.986Z,46.40
2019-03-30T16:48:17.972Z,47.40
2019-03-30T16:50:48.617Z,50.80
2019-03-30T16:53:18.925Z,48.90
2019-03-30T16:55:51.086Z,49.30
2019-03-30T16:58:21.920Z,49.80
2019-03-30T17:00:56.776Z,49.60
2019-03-30T17:03:25.259Z,49.70
2019-03-30T17:05:56.290Z,49.60
2019-03-30T17:08:27.232Z,49.80
2019-03-30T17:10:57.839Z,49.70
2019-03-30T17:13:28.568Z,50.30
2019-03-30T17:15:59.220Z,51.50
2019-03-30T17:18:29.776Z,53.10
2019-03-30T17:21:00.025Z,53.80
2019-03-30T17:23:30.721Z,54.60
2019-03-30T17:26:01.723Z,56.10
2019-03-30T17:28:32.674Z,57.10
2019-03-30T17:31:03.591Z,58.40
2019-03-30T17:33:36.468Z,59.60
2019-03-30T17:36:07.527Z,59.80
2019-03-30T17:38:37.862Z,60.00
2019-03-30T17:41:08.134Z,60.50
2019-03-30T17:43:38.832Z,60.60
2019-03-30T17:46:09.924Z,61.00
2019-03-30T17:48:39.787Z,61.20
2019-03-30T17:51:12.387Z,62.30
2019-03-30T17:53:44.187Z,62.90
2019-03-30T17:56:14.850Z,63.20
2019-03-30T17:58:46.719Z,63.20
2019-03-30T18:01:18.040Z,62.60
2019-03-30T18:03:49.064Z,63.30
2019-03-30T18:06:20.369Z,64.00
2019-03-30T18:08:51.058Z,63.40
2019-03-30T18:11:21.281Z,64.20
2019-03-30T18:13:52.150Z,63.40
2019-03-30T18:16:24.878Z,62.50
2019-03-30T18:18:56.190Z,63.70
2019-03-30T18:21:26.786Z,64.50
2019-03-30T18:23:58.162Z,64.90
2019-03-30T18:26:28.852Z,64.50
2019-03-30T18:29:00.212Z,63.80
2019-03-30T18:31:30.360Z,65.30
2019-03-30T18:34:01.079Z,66.20
2019-03-30T18:36:33.270Z,65.50
2019-03-30T18:39:09.811Z,66.50
2019-03-30T18:41:38.274Z,65.90
2019-03-30T18:44:09.603Z,66.90
2019-03-30T18:46:40.200Z,67.60
2019-03-30T18:49:10.554Z,68.20
2019-03-30T18:51:43.400Z,68.90
2019-03-30T18:54:13.874Z,69.20
2019-03-30T18:56:44.857Z,68.60
2019-03-30T18:59:15.796Z,69.50
2019-03-30T19:01:46.703Z,70.10
2019-03-30T19:04:17.999Z,70.90
2019-03-30T19:06:51.577Z,71.20
2019-03-30T19:09:22.216Z,71.40
2019-03-30T19:11:53.465Z,71.80
2019-03-30T19:14:26.768Z,71.40
2019-03-30T19:16:56.861Z,72.80
2019-03-30T19:19:28.164Z,73.00
2019-03-30T19:21:58.893Z,72.30
2019-03-30T19:24:29.241Z,73.10
2019-03-30T19:26:59.484Z,72.70
2019-03-30T19:29:30.467Z,72.90
2019-03-30T19:32:01.474Z,73.40
2019-03-30T19:34:32.818Z,74.10
2019-03-30T19:37:03.069Z,73.90
2019-03-30T19:39:34.090Z,74.60
2019-03-30T19:42:05.092Z,75.00
2019-03-30T19:44:35.700Z,75.10
2019-03-30T19:47:06.268Z,75.80
2019-03-30T19:49:36.791Z,76.30
2019-03-30T19:52:06.682Z,76.10
2019-03-30T19:54:37.697Z,76.90
2019-03-30T19:57:08.964Z,76.60
2019-03-30T19:59:39.540Z,77.30
2019-03-30T20:02:12.912Z,77.70
2019-03-30T20:04:43.582Z,77.20
2019-03-30T20:07:13.431Z,77.50
2019-03-30T20:09:44.731Z,77.30
2019-03-30T20:12:16.031Z,76.30
2019-03-30T20:14:46.883Z,77.20
2019-03-30T20:17:18.212Z,78.40
2019-03-30T20:19:49.196Z,78.60
2019-03-30T20:22:19.433Z,78.60
2019-03-30T20:24:50.381Z,77.90
2019-03-30T20:27:20.995Z,78.30
2019-03-30T20:29:51.922Z,78.80
2019-03-30T20:32:22.876Z,78.20
2019-03-30T20:34:57.148Z,78.10
2019-03-30T20:37:27.417Z,78.60
2019-03-30T20:39:58.666Z,78.70
2019-03-30T20:42:29.591Z,79.30
2019-03-30T20:45:01.566Z,79.10
2019-03-30T20:47:32.516Z,79.40
2019-03-30T20:50:03.855Z,79.50
2019-03-30T20:52:36.534Z,80.00
2019-03-30T20:55:07.996Z,80.30
2019-03-30T20:57:39.047Z,80.40
